createdAt,value
2023-01-03T00:06:06.436Z,11.90
2023-01-03T00:21:08.365Z,11.90
2023-01-03T00:36:11.142Z,11.70
2023-01-03T00:51:19.809Z,11.50
2023-01-03T01:06:28.754Z,11.30
2023-01-03T01:21:31.625Z,10.60
2023-01-03T01:36:37.757Z,10.80
2023-01-03T01:51:39.930Z,10.90
2023-01-03T02:06:42.233Z,10.70
2023-01-03T02:22:15.957Z,10.70
2023-01-03T02:37:28.982Z,10.60
2023-01-03T02:52:32.521Z,10.70
2023-01-03T03:07:40.898Z,10.70
2023-01-03T03:23:15.031Z,10.60
2023-01-03T03:38:25.221Z,10.60
2023-01-03T03:53:32.100Z,10.50
2023-01-03T04:08:34.103Z,10.40
2023-01-03T04:23:36.038Z,10.30
2023-01-03T04:38:38.150Z,10.30
2023-01-03T04:53:40.079Z,10.30
2023-01-03T05:08:44.303Z,10.20
2023-01-03T05:24:04.671Z,10.20
2023-01-03T05:39:07.056Z,10.20
2023-01-03T05:54:12.803Z,10.30
2023-01-03T06:09:14.888Z,10.40
2023-01-03T06:24:16.844Z,10.40
2023-01-03T06:39:18.758Z,10.30
2023-01-03T06:54:29.094Z,10.40
2023-01-03T07:09:41.120Z,10.50
2023-01-03T07:24:43.106Z,10.30
2023-01-03T07:39:45.068Z,10.20
2023-01-03T07:54:47.039Z,10.30
2023-01-03T08:10:07.545Z,10.40
2023-01-03T08:25:09.901Z,10.40
2023-01-03T08:40:13.008Z,10.30
2023-01-03T08:55:15.021Z,10.30
2023-01-03T09:10:17.072Z,10.40
2023-01-03T09:25:19.217Z,10.40
2023-01-03T09:40:21.226Z,10.40
2023-01-03T09:55:47.824Z,10.20
2023-01-03T10:11:12.108Z,10.20
2023-01-03T10:26:14.323Z,10.10
2023-01-03T10:41:32.764Z,9.70
2023-01-03T10:56:36.072Z,9.70
2023-01-03T11:11:42.664Z,9.80
2023-01-03T11:26:59.162Z,10.60
2023-01-03T11:42:24.164Z,11.00
2023-01-03T11:57:36.330Z,10.70
2023-01-03T12:12:43.981Z,10.30
2023-01-03T12:27:54.575Z,10.10
2023-01-03T12:43:14.300Z,10.40
2023-01-03T12:58:39.865Z,10.50
2023-01-03T13:13:56.843Z,9.90
2023-01-03T13:29:35.739Z,10.10
2023-01-03T13:44:37.698Z,10.00
2023-01-03T13:59:44.819Z,9.60
2023-01-03T14:14:59.174Z,9.80
2023-01-03T14:30:01.388Z,9.60
2023-01-03T14:45:06.963Z,8.90
2023-01-03T15:00:33.620Z,9.20
2023-01-03T15:15:39.749Z,9.00
2023-01-03T15:30:48.911Z,8.80
2023-01-03T15:46:03.485Z,8.80
2023-01-03T16:01:07.810Z,8.50
2023-01-03T16:16:11.288Z,8.70
2023-01-03T16:31:21.914Z,8.60
2023-01-03T16:46:25.808Z,8.30
2023-01-03T17:01:28.002Z,8.20
2023-01-03T17:16:32.745Z,8.00
2023-01-03T17:31:34.941Z,7.80
2023-01-03T17:46:55.779Z,7.60
2023-01-03T18:01:58.595Z,7.40
2023-01-03T18:17:00.631Z,7.20
2023-01-03T18:32:35.743Z,7.00
2023-01-03T18:47:37.728Z,6.90
2023-01-03T19:02:39.896Z,6.70
2023-01-03T19:17:42.007Z,6.30
2023-01-03T19:32:49.192Z,6.10
2023-01-03T19:47:51.233Z,6.20
2023-01-03T20:02:56.755Z,6.20
2023-01-03T20:17:59.415Z,6.20
2023-01-03T20:33:01.401Z,6.10
2023-01-03T20:48:03.540Z,6.10
2023-01-03T21:03:05.769Z,6.10
2023-01-03T21:18:09.885Z,5.90
2023-01-03T21:33:17.509Z,5.90
2023-01-03T21:48:19.434Z,5.90
2023-01-03T22:03:40.210Z,5.70
2023-01-03T22:18:42.546Z,5.40
2023-01-03T22:33:49.057Z,5.20
2023-01-03T22:48:51.069Z,4.70
2023-01-03T23:03:54.814Z,4.60
2023-01-03T23:18:56.937Z,4.50
2023-01-03T23:33:59.980Z,4.50
2023-01-03T23:49:02.015Z,4.40
